createdAt,value
2022-10-05T00:02:21.157Z,11.09
2022-10-05T00:04:49.322Z,11.04
2022-10-05T00:07:18.664Z,10.99
2022-10-05T00:09:48.594Z,10.95
2022-10-05T00:12:17.494Z,10.91
2022-10-05T00:14:45.587Z,10.85
2022-10-05T00:17:20.738Z,10.79
2022-10-05T00:19:52.075Z,10.76
2022-10-05T00:22:38.377Z,10.75
2022-10-05T00:25:14.539Z,10.70
2022-10-05T00:27:41.654Z,10.70
2022-10-05T00:30:17.356Z,10.68
2022-10-05T00:32:44.966Z,10.69
2022-10-05T00:35:12.571Z,10.69
2022-10-05T00:37:39.285Z,10.68
2022-10-05T00:40:35.942Z,10.64
2022-10-05T00:43:17.892Z,10.61
2022-10-05T00:45:52.941Z,10.62
2022-10-05T00:48:46.606Z,10.58
2022-10-05T00:51:21.124Z,10.57
2022-10-05T00:53:59.947Z,10.57
2022-10-05T00:56:56.930Z,10.51
2022-10-05T00:59:29.381Z,10.50
2022-10-05T01:02:22.143Z,10.43
2022-10-05T01:04:48.638Z,10.43
2022-10-05T01:07:18.720Z,10.39
2022-10-05T01:09:57.145Z,10.37
2022-10-05T01:12:45.331Z,10.35
2022-10-05T01:15:37.178Z,10.37
2022-10-05T01:18:16.552Z,10.37
2022-10-05T01:21:06.462Z,10.32
2022-10-05T01:23:39.243Z,10.34
2022-10-05T01:26:26.171Z,10.34
2022-10-05T01:29:02.585Z,10.34
2022-10-05T01:31:40.240Z,10.34
2022-10-05T01:34:15.915Z,10.33
2022-10-05T01:37:09.513Z,10.28
2022-10-05T01:40:06.450Z,10.24
2022-10-05T01:42:49.825Z,10.22
2022-10-05T01:45:28.485Z,10.19
2022-10-05T01:48:16.650Z,10.18
2022-10-05T01:51:09.015Z,10.13
2022-10-05T01:53:38.376Z,10.04
2022-10-05T01:56:15.419Z,10.05
2022-10-05T01:58:48.980Z,10.02
2022-10-05T02:01:25.360Z,10.03
2022-10-05T02:04:01.386Z,10.04
2022-10-05T02:06:32.370Z,10.08
2022-10-05T02:09:09.065Z,10.13
2022-10-05T02:11:39.749Z,10.17
2022-10-05T02:14:18.504Z,10.18
2022-10-05T02:16:49.689Z,10.19
2022-10-05T02:19:35.050Z,10.17
2022-10-05T02:22:13.531Z,10.19
2022-10-05T02:24:45.405Z,10.22
2022-10-05T02:27:18.573Z,10.20
2022-10-05T02:29:48.355Z,10.22
2022-10-05T02:32:40.104Z,10.21
2022-10-05T02:35:16.072Z,10.25
2022-10-05T02:38:04.569Z,10.30
2022-10-05T02:41:23.201Z,10.54
2022-10-05T02:44:08.516Z,10.52
2022-10-05T02:46:38.282Z,10.56
2022-10-05T02:49:08.671Z,10.58
2022-10-05T02:51:57.915Z,10.65
2022-10-05T02:54:27.178Z,10.60
2022-10-05T02:57:00.184Z,10.62
2022-10-05T02:59:34.914Z,10.73
2022-10-05T03:02:24.771Z,10.81
2022-10-05T03:05:30.903Z,11.06
2022-10-05T03:08:06.224Z,11.04
2022-10-05T03:11:11.240Z,11.05
2022-10-05T03:13:37.700Z,11.11
2022-10-05T03:16:15.640Z,11.16
2022-10-05T03:19:11.561Z,11.19
2022-10-05T03:21:47.069Z,11.16
2022-10-05T03:24:44.727Z,11.24
2022-10-05T03:27:22.999Z,11.31
2022-10-05T03:29:52.574Z,11.61
2022-10-05T03:32:44.012Z,11.53
2022-10-05T03:35:35.333Z,11.54
2022-10-05T03:39:02.273Z,11.55
2022-10-05T03:41:36.810Z,11.62
2022-10-05T03:44:36.920Z,11.63
2022-10-05T03:47:25.350Z,11.66
2022-10-05T03:50:12.131Z,11.59
2022-10-05T03:52:46.046Z,11.49
2022-10-05T03:55:30.947Z,11.44
2022-10-05T03:58:03.154Z,11.43
2022-10-05T04:00:31.895Z,11.38
2022-10-05T04:03:05.418Z,11.30
2022-10-05T04:05:38.182Z,11.23
2022-10-05T04:08:18.050Z,11.15
2022-10-05T04:10:52.018Z,11.11
2022-10-05T04:13:22.369Z,11.11
2022-10-05T04:15:51.864Z,11.10
2022-10-05T04:18:26.476Z,11.11
2022-10-05T04:20:58.926Z,11.07
2022-10-05T04:23:35.011Z,11.05
2022-10-05T04:26:10.526Z,11.05
2022-10-05T04:28:51.083Z,11.07
2022-10-05T04:31:38.313Z,11.11
2022-10-05T04:34:30.203Z,11.12
2022-10-05T04:37:06.131Z,11.12
2022-10-05T04:40:05.235Z,11.11
2022-10-05T04:42:44.395Z,11.12
2022-10-05T04:45:33.915Z,11.13
2022-10-05T04:48:37.761Z,11.16
2022-10-05T04:51:19.671Z,11.18
2022-10-05T04:54:11.628Z,11.21
2022-10-05T04:56:47.596Z,11.50
2022-10-05T04:59:23.321Z,12.04
2022-10-05T05:02:12.800Z,12.49
2022-10-05T05:04:55.045Z,12.84
2022-10-05T05:07:30.408Z,13.02
2022-10-05T05:10:18.258Z,13.25
2022-10-05T05:13:03.781Z,13.37
2022-10-05T05:16:01.410Z,13.51
2022-10-05T05:18:54.466Z,13.59
2022-10-05T05:21:40.931Z,13.63
2022-10-05T05:24:20.321Z,13.65
2022-10-05T05:27:01.239Z,13.63
2022-10-05T05:29:42.902Z,13.52
2022-10-05T05:32:23.420Z,13.45
2022-10-05T05:34:59.111Z,13.31
2022-10-05T05:37:36.542Z,13.09
2022-10-05T05:40:12.175Z,12.95
2022-10-05T05:42:57.436Z,12.92
2022-10-05T05:45:29.108Z,12.93
2022-10-05T05:47:58.866Z,12.96
2022-10-05T05:50:41.169Z,12.98
2022-10-05T05:53:14.779Z,12.97
2022-10-05T05:55:46.520Z,12.97
2022-10-05T05:58:27.445Z,12.94
2022-10-05T06:01:20.211Z,12.90
2022-10-05T06:04:14.787Z,12.95
2022-10-05T06:06:47.113Z,12.96
2022-10-05T06:09:16.735Z,12.96
2022-10-05T06:11:51.110Z,13.03
2022-10-05T06:14:28.879Z,13.01
2022-10-05T06:16:59.979Z,13.23
2022-10-05T06:19:28.924Z,13.33
2022-10-05T06:22:12.335Z,13.34
2022-10-05T06:25:04.404Z,13.43
2022-10-05T06:27:57.832Z,13.48
2022-10-05T06:30:29.667Z,13.52
2022-10-05T06:33:12.719Z,13.49
2022-10-05T06:36:12.884Z,13.49
2022-10-05T06:39:03.173Z,13.68
2022-10-05T06:41:54.692Z,13.82
2022-10-05T06:44:46.026Z,13.95
2022-10-05T06:47:30.896Z,14.12
2022-10-05T06:50:36.745Z,14.07
2022-10-05T06:53:34.772Z,13.98
2022-10-05T06:56:20.088Z,13.83
2022-10-05T06:59:00.830Z,13.77
2022-10-05T07:01:49.539Z,13.66
2022-10-05T07:04:24.180Z,13.69
2022-10-05T07:07:17.211Z,13.73
2022-10-05T07:10:00.215Z,13.81
2022-10-05T07:13:02.983Z,13.85
2022-10-05T07:15:42.862Z,13.96
2022-10-05T07:18:29.610Z,14.06
2022-10-05T07:21:27.401Z,14.13
2022-10-05T07:24:03.150Z,14.30
2022-10-05T07:26:32.499Z,14.62
2022-10-05T07:29:07.872Z,14.55
2022-10-05T07:31:54.682Z,14.55
2022-10-05T07:34:30.239Z,14.59
2022-10-05T07:37:30.669Z,14.56
2022-10-05T07:40:06.888Z,14.65
2022-10-05T07:42:51.779Z,14.67
2022-10-05T07:45:45.533Z,14.64
2022-10-05T07:48:17.079Z,14.68
2022-10-05T07:50:43.548Z,14.76
2022-10-05T07:53:22.644Z,14.79
2022-10-05T07:55:54.660Z,14.80
2022-10-05T07:58:39.769Z,14.75
2022-10-05T08:01:26.941Z,14.82
2022-10-05T08:04:00.541Z,14.89
2022-10-05T08:06:39.070Z,14.99
2022-10-05T08:09:39.082Z,15.15
2022-10-05T08:12:28.194Z,15.25
2022-10-05T08:14:57.395Z,15.27
2022-10-05T08:17:53.554Z,15.21
2022-10-05T08:20:54.770Z,15.21
2022-10-05T08:23:21.973Z,15.22
2022-10-05T08:25:54.296Z,15.14
2022-10-05T08:28:28.268Z,15.14
2022-10-05T08:31:11.830Z,15.20
2022-10-05T08:33:52.664Z,15.20
2022-10-05T08:36:29.151Z,15.25
2022-10-05T08:38:59.718Z,15.35
2022-10-05T08:41:56.946Z,15.36
2022-10-05T08:44:45.872Z,15.45
2022-10-05T08:47:19.749Z,15.48
2022-10-05T08:50:14.448Z,15.49
2022-10-05T08:53:19.789Z,15.51
2022-10-05T08:56:00.973Z,15.45
2022-10-05T08:59:10.676Z,15.41
2022-10-05T09:02:00.799Z,15.40
2022-10-05T09:04:38.574Z,15.36
2022-10-05T09:07:43.476Z,15.35
2022-10-05T09:10:58.359Z,15.40
2022-10-05T09:13:45.119Z,15.51
2022-10-05T09:16:20.888Z,15.63
2022-10-05T09:19:25.215Z,15.67
2022-10-05T09:22:02.000Z,15.74
2022-10-05T09:24:48.348Z,15.79
2022-10-05T09:27:20.067Z,15.90
2022-10-05T09:30:05.585Z,16.02
2022-10-05T09:32:52.743Z,16.18
2022-10-05T09:35:40.161Z,16.27
2022-10-05T09:38:17.648Z,16.32
2022-10-05T09:40:50.378Z,16.38
2022-10-05T09:43:16.871Z,16.46
2022-10-05T09:45:58.795Z,16.46
2022-10-05T09:48:58.925Z,16.51
2022-10-05T09:51:52.114Z,16.71
2022-10-05T09:54:36.405Z,16.78
2022-10-05T09:57:18.112Z,16.85
2022-10-05T10:00:08.924Z,16.93
2022-10-05T10:03:24.472Z,17.00
2022-10-05T10:06:00.009Z,17.06
2022-10-05T10:08:38.884Z,17.15
2022-10-05T10:11:24.037Z,17.27
2022-10-05T10:13:56.688Z,17.39
2022-10-05T10:17:00.678Z,17.50
2022-10-05T10:19:36.513Z,17.61
2022-10-05T10:22:09.230Z,17.72
2022-10-05T10:24:44.983Z,17.83
2022-10-05T10:27:28.972Z,17.93
2022-10-05T10:30:13.869Z,18.04
2022-10-05T10:33:02.177Z,18.11
2022-10-05T10:35:41.925Z,18.10
2022-10-05T10:38:28.481Z,18.14
2022-10-05T10:41:16.801Z,18.29
2022-10-05T10:43:57.320Z,18.43
2022-10-05T10:46:45.632Z,18.61
2022-10-05T10:49:49.267Z,18.99
2022-10-05T10:52:29.324Z,19.31
2022-10-05T10:55:23.261Z,19.48
2022-10-05T10:58:12.355Z,19.59
2022-10-05T11:00:49.954Z,19.62
2022-10-05T11:03:31.430Z,19.72
2022-10-05T11:06:19.888Z,19.90
2022-10-05T11:08:46.644Z,20.01
2022-10-05T11:11:41.193Z,20.15
2022-10-05T11:14:32.291Z,20.36
2022-10-05T11:17:33.494Z,20.46
2022-10-05T11:20:37.811Z,20.65
2022-10-05T11:23:35.330Z,20.83
2022-10-05T11:26:14.669Z,20.92
2022-10-05T11:28:50.503Z,21.09
2022-10-05T11:31:26.493Z,21.16
2022-10-05T11:34:21.184Z,21.17
2022-10-05T11:37:10.281Z,21.29
2022-10-05T11:39:58.862Z,21.36
2022-10-05T11:42:59.157Z,21.34
2022-10-05T11:45:31.729Z,21.44
2022-10-05T11:48:16.931Z,21.50
2022-10-05T11:51:10.813Z,21.59
2022-10-05T11:53:43.471Z,21.47
2022-10-05T11:56:23.483Z,21.49
2022-10-05T11:59:20.885Z,21.56
2022-10-05T12:02:33.470Z,21.69
2022-10-05T12:05:21.727Z,21.79
2022-10-05T12:07:54.075Z,21.92
2022-10-05T12:10:32.768Z,21.99
2022-10-05T12:13:19.407Z,21.98
2022-10-05T12:16:18.531Z,22.11
2022-10-05T12:19:08.644Z,22.27
2022-10-05T12:21:47.167Z,22.37
2022-10-05T12:24:26.790Z,22.47
2022-10-05T12:27:07.520Z,22.64
2022-10-05T12:29:57.533Z,22.89
2022-10-05T12:32:41.077Z,23.03
2022-10-05T12:35:46.705Z,23.13
2022-10-05T12:38:30.143Z,23.06
2022-10-05T12:41:21.367Z,22.98
2022-10-05T12:43:50.558Z,22.95
2022-10-05T12:47:00.290Z,22.97
2022-10-05T12:49:42.213Z,23.07
2022-10-05T12:52:47.548Z,23.13
2022-10-05T12:55:43.114Z,23.12
2022-10-05T12:58:38.745Z,23.19
2022-10-05T13:01:34.211Z,23.35
2022-10-05T13:04:19.605Z,23.45
2022-10-05T13:06:46.123Z,23.59
2022-10-05T13:09:24.134Z,23.73
2022-10-05T13:11:58.651Z,23.81
2022-10-05T13:14:53.760Z,23.89
2022-10-05T13:17:44.430Z,23.99
2022-10-05T13:20:21.522Z,24.09
2022-10-05T13:23:13.245Z,24.36
2022-10-05T13:25:52.311Z,24.68
2022-10-05T13:28:24.736Z,24.92
2022-10-05T13:31:09.156Z,25.26
2022-10-05T13:33:56.707Z,25.63
2022-10-05T13:36:35.916Z,26.08
2022-10-05T13:39:29.465Z,26.28
2022-10-05T13:41:59.619Z,26.57
2022-10-05T13:44:30.561Z,26.66
2022-10-05T13:46:59.882Z,26.76
2022-10-05T13:49:49.394Z,26.82
2022-10-05T13:52:44.608Z,27.02
2022-10-05T13:55:21.990Z,27.38
2022-10-05T13:58:06.109Z,27.70
2022-10-05T14:00:48.222Z,27.88
2022-10-05T14:04:03.895Z,28.12
2022-10-05T14:06:33.178Z,28.33
2022-10-05T14:09:00.433Z,28.59
2022-10-05T14:11:32.170Z,28.81
2022-10-05T14:14:04.793Z,28.79
2022-10-05T14:16:33.663Z,28.84
2022-10-05T14:19:06.269Z,29.02
2022-10-05T14:21:47.340Z,29.22
2022-10-05T14:24:42.393Z,29.46
2022-10-05T14:27:55.434Z,29.74
2022-10-05T14:30:25.721Z,29.71
2022-10-05T14:32:56.166Z,29.53
2022-10-05T14:35:30.683Z,29.49
2022-10-05T14:38:02.899Z,29.39
2022-10-05T14:40:38.003Z,29.31
2022-10-05T14:43:16.704Z,29.36
2022-10-05T14:45:57.016Z,29.76
2022-10-05T14:48:27.910Z,29.81
2022-10-05T14:50:56.305Z,29.88
2022-10-05T14:53:25.449Z,30.12
2022-10-05T14:56:14.341Z,30.17
2022-10-05T14:59:04.153Z,30.13
2022-10-05T15:01:35.161Z,29.75
2022-10-05T15:04:30.747Z,29.67
2022-10-05T15:07:12.723Z,29.63
2022-10-05T15:10:06.850Z,29.84
2022-10-05T15:12:38.601Z,30.04
2022-10-05T15:15:22.501Z,29.91
2022-10-05T15:17:55.288Z,29.71
2022-10-05T15:20:37.019Z,29.64
2022-10-05T15:23:16.050Z,29.55
2022-10-05T15:26:08.537Z,29.69
2022-10-05T15:28:51.622Z,29.78
2022-10-05T15:31:39.376Z,29.85
2022-10-05T15:34:26.551Z,29.82
2022-10-05T15:37:01.006Z,29.94
2022-10-05T15:39:27.487Z,29.90
2022-10-05T15:42:03.489Z,29.92
2022-10-05T15:44:34.270Z,30.01
2022-10-05T15:47:09.118Z,29.85
2022-10-05T15:49:38.346Z,29.56
2022-10-05T15:52:04.840Z,29.42
2022-10-05T15:55:11.336Z,29.29
2022-10-05T15:57:43.336Z,28.94
2022-10-05T16:00:15.974Z,28.61
2022-10-05T16:03:00.272Z,27.83
2022-10-05T16:05:57.276Z,27.20
2022-10-05T16:08:51.155Z,26.34
2022-10-05T16:11:58.998Z,25.59
2022-10-05T16:14:32.428Z,25.06
2022-10-05T16:16:58.963Z,24.65
2022-10-05T16:19:52.388Z,24.22
2022-10-05T16:22:39.928Z,23.90
2022-10-05T16:25:22.320Z,23.59
2022-10-05T16:28:16.025Z,23.33
2022-10-05T16:30:45.313Z,23.09
2022-10-05T16:33:38.080Z,22.84
2022-10-05T16:36:25.167Z,22.65
2022-10-05T16:39:00.112Z,22.35
2022-10-05T16:41:34.920Z,22.13
2022-10-05T16:44:13.527Z,21.86
2022-10-05T16:46:45.250Z,21.67
2022-10-05T16:49:50.394Z,21.45
2022-10-05T16:52:21.420Z,21.27
2022-10-05T16:54:55.471Z,21.14
2022-10-05T16:57:43.779Z,20.97
2022-10-05T17:00:34.107Z,20.78
2022-10-05T17:03:36.464Z,20.65
2022-10-05T17:06:05.688Z,20.43
2022-10-05T17:08:49.706Z,20.30
2022-10-05T17:11:50.279Z,20.18
2022-10-05T17:14:20.236Z,20.08
2022-10-05T17:17:15.916Z,19.94
2022-10-05T17:20:29.399Z,19.77
2022-10-05T17:23:05.149Z,19.66
2022-10-05T17:25:42.772Z,19.54
2022-10-05T17:28:18.428Z,19.44
2022-10-05T17:31:07.708Z,19.42
2022-10-05T17:33:54.824Z,19.42
2022-10-05T17:36:21.467Z,19.35
2022-10-05T17:38:51.152Z,19.29
2022-10-05T17:41:20.649Z,19.29
2022-10-05T17:44:05.963Z,19.24
2022-10-05T17:46:45.952Z,19.23
2022-10-05T17:49:37.780Z,19.26
2022-10-05T17:52:45.139Z,19.31
2022-10-05T17:55:26.663Z,19.32
2022-10-05T17:57:54.764Z,19.32
2022-10-05T18:00:56.615Z,19.27
2022-10-05T18:03:42.633Z,19.20
2022-10-05T18:06:28.426Z,19.13
2022-10-05T18:09:13.793Z,18.99
2022-10-05T18:11:48.151Z,18.94
2022-10-05T18:14:27.101Z,18.86
2022-10-05T18:17:03.463Z,18.77
2022-10-05T18:19:32.385Z,18.68
2022-10-05T18:22:25.111Z,18.53
2022-10-05T18:24:55.963Z,18.43
2022-10-05T18:27:34.164Z,18.32
2022-10-05T18:30:05.179Z,18.25
2022-10-05T18:32:47.744Z,18.18
2022-10-05T18:35:21.653Z,18.14
2022-10-05T18:38:13.309Z,18.09
2022-10-05T18:41:16.556Z,18.05
2022-10-05T18:44:13.467Z,18.07
2022-10-05T18:46:46.078Z,18.11
2022-10-05T18:49:40.458Z,18.22
2022-10-05T18:52:16.416Z,18.37
2022-10-05T18:55:02.664Z,18.52
2022-10-05T18:57:43.747Z,18.60
2022-10-05T19:00:22.446Z,18.64
2022-10-05T19:03:08.292Z,18.65
2022-10-05T19:06:13.406Z,18.72
2022-10-05T19:09:04.197Z,18.74
2022-10-05T19:11:49.792Z,18.75
2022-10-05T19:14:42.346Z,18.74
2022-10-05T19:17:25.876Z,18.73
2022-10-05T19:20:04.009Z,18.73
2022-10-05T19:22:49.325Z,18.70
2022-10-05T19:25:37.637Z,18.65
2022-10-05T19:28:26.058Z,18.57
2022-10-05T19:31:11.585Z,18.49
2022-10-05T19:34:03.365Z,18.44
2022-10-05T19:36:52.888Z,18.34
2022-10-05T19:39:39.031Z,18.20
2022-10-05T19:42:11.619Z,18.09
2022-10-05T19:44:52.312Z,17.96
2022-10-05T19:48:03.149Z,17.85
2022-10-05T19:50:33.574Z,17.79
2022-10-05T19:53:04.179Z,17.73
2022-10-05T19:55:42.079Z,17.66
2022-10-05T19:58:27.158Z,17.60
2022-10-05T20:01:03.146Z,17.56
2022-10-05T20:03:32.423Z,17.53
2022-10-05T20:06:01.535Z,17.52
2022-10-05T20:08:39.739Z,17.49
2022-10-05T20:11:20.986Z,17.52
2022-10-05T20:14:09.491Z,17.55
2022-10-05T20:16:55.429Z,17.52
2022-10-05T20:19:49.721Z,17.50
2022-10-05T20:22:35.371Z,17.45
2022-10-05T20:25:28.867Z,17.41
2022-10-05T20:27:56.809Z,17.33
2022-10-05T20:30:25.854Z,17.26
2022-10-05T20:32:57.645Z,17.15
2022-10-05T20:35:27.790Z,17.07
2022-10-05T20:37:59.937Z,17.03
2022-10-05T20:40:29.066Z,17.02
2022-10-05T20:42:56.871Z,17.00
2022-10-05T20:45:23.471Z,16.97
2022-10-05T20:47:50.737Z,16.91
2022-10-05T20:50:17.519Z,16.87
2022-10-05T20:52:44.061Z,16.86
2022-10-05T20:55:11.947Z,16.83
2022-10-05T20:57:42.048Z,16.81
2022-10-05T21:00:10.975Z,16.82
2022-10-05T21:02:38.610Z,16.78
2022-10-05T21:05:05.829Z,16.79
2022-10-05T21:07:34.244Z,16.80
2022-10-05T21:10:09.977Z,16.72
2022-10-05T21:12:36.951Z,16.67
2022-10-05T21:15:04.725Z,16.62
2022-10-05T21:17:32.299Z,16.56
2022-10-05T21:19:59.916Z,16.53
2022-10-05T21:22:26.490Z,16.54
2022-10-05T21:24:55.094Z,16.57
2022-10-05T21:27:21.656Z,16.56
2022-10-05T21:29:48.164Z,16.56
2022-10-05T21:32:14.767Z,16.56
2022-10-05T21:34:41.371Z,16.57
2022-10-05T21:37:08.722Z,16.58
2022-10-05T21:39:36.568Z,16.60
2022-10-05T21:42:03.575Z,16.54
2022-10-05T21:44:30.113Z,16.48
2022-10-05T21:46:56.727Z,16.45
2022-10-05T21:49:24.043Z,16.42
2022-10-05T21:51:50.636Z,16.45
2022-10-05T21:54:21.094Z,16.47
2022-10-05T21:56:51.547Z,16.51
2022-10-05T21:59:21.870Z,16.53
2022-10-05T22:01:48.448Z,16.51
2022-10-05T22:04:15.167Z,16.51
2022-10-05T22:06:42.160Z,16.51
2022-10-05T22:09:08.906Z,16.57
2022-10-05T22:11:35.507Z,16.63
2022-10-05T22:14:04.697Z,16.64
2022-10-05T22:16:35.188Z,16.59
2022-10-05T22:19:10.452Z,16.52
2022-10-05T22:21:41.455Z,16.41
2022-10-05T22:24:09.398Z,16.33
2022-10-05T22:26:36.133Z,16.25
2022-10-05T22:29:03.462Z,16.15
2022-10-05T22:31:30.305Z,16.08
2022-10-05T22:33:56.884Z,16.04
2022-10-05T22:36:23.694Z,15.99
2022-10-05T22:38:50.391Z,15.97
2022-10-05T22:41:18.475Z,15.95
2022-10-05T22:43:48.712Z,15.90
2022-10-05T22:46:16.160Z,15.86
2022-10-05T22:48:43.202Z,15.87
2022-10-05T22:51:10.179Z,15.88
2022-10-05T22:53:36.854Z,15.86
2022-10-05T22:56:08.011Z,15.85
2022-10-05T22:58:35.069Z,15.92
2022-10-05T23:01:04.458Z,16.05
2022-10-05T23:03:32.189Z,16.12
2022-10-05T23:06:03.103Z,16.18
2022-10-05T23:08:31.718Z,16.23
2022-10-05T23:11:16.786Z,16.26
2022-10-05T23:13:43.712Z,16.31
2022-10-05T23:16:12.755Z,16.39
2022-10-05T23:18:40.479Z,16.47
2022-10-05T23:21:08.570Z,16.55
2022-10-05T23:23:44.051Z,16.63
2022-10-05T23:26:11.427Z,16.71
2022-10-05T23:28:46.298Z,16.83
2022-10-05T23:31:15.807Z,17.01
2022-10-05T23:33:42.433Z,17.15
2022-10-05T23:36:13.423Z,17.17
2022-10-05T23:38:40.010Z,17.18
2022-10-05T23:41:07.581Z,17.09
2022-10-05T23:43:35.127Z,16.93
2022-10-05T23:46:02.612Z,16.75
2022-10-05T23:48:30.075Z,16.60
2022-10-05T23:50:57.660Z,16.46
2022-10-05T23:53:24.371Z,16.36
2022-10-05T23:55:54.500Z,16.30
2022-10-05T23:58:22.507Z,16.25
